Redmon, Illinois
Current Conditions -  °F | °C
As of 11:15 AM on Friday 24 Oct 2014 (Local Time) from KPRG Reporting Station
Overcast Overcast  
Wind Chill: 61°   Ceiling: 2700
Heat Index: 61°   Visibility: 10mi
Dew Point: 51°   Wind: 0mph
Humidity: 69%   Direction: NA
Pressure: 30.1"   Gusts: NA
Location:  39.65°N, 87.86°W
Report Text: KPRG 241615Z AUTO 00000KT 10SM OVC027 16/11 A3010 RMK AO2 T01620105
Loading
Personal Weather Stations






























Interactive Weather Map
Tropical Storm Tracking
New forecast layout! Learn more

10-Day Weather Forecast

Advertisements
Track Severe Weather on mobile